createdAt,value
2023-04-09T00:00:40.087Z,60.47
2023-04-09T00:03:08.470Z,81.18
2023-04-09T00:05:40.470Z,66.07
2023-04-09T00:08:09.006Z,68.57
2023-04-09T00:10:38.549Z,66.68
2023-04-09T00:13:06.796Z,64.82
2023-04-09T00:15:35.012Z,63.63
2023-04-09T00:18:03.302Z,75.13
2023-04-09T00:20:31.454Z,60.03
2023-04-09T00:22:59.659Z,66.40
2023-04-09T00:25:28.726Z,61.70
2023-04-09T00:27:59.038Z,103.35
2023-04-09T00:30:29.961Z,136.50
2023-04-09T00:32:58.342Z,78.53
2023-04-09T00:35:26.618Z,91.15
2023-04-09T00:37:54.990Z,123.47
2023-04-09T00:40:23.189Z,82.07
2023-04-09T00:42:51.461Z,63.78
2023-04-09T00:45:21.208Z,76.75
2023-04-09T00:47:49.579Z,48.35
2023-04-09T00:50:18.124Z,56.13
2023-04-09T00:52:47.104Z,48.45
2023-04-09T00:55:15.477Z,61.90
2023-04-09T00:57:43.763Z,58.63
2023-04-09T01:00:13.249Z,52.40
2023-04-09T01:02:44.919Z,54.08
2023-04-09T01:05:14.222Z,63.05
2023-04-09T01:07:55.880Z,57.58
2023-04-09T01:10:34.784Z,54.00
2023-04-09T01:13:10.740Z,53.05
2023-04-09T01:15:45.392Z,56.28
2023-04-09T01:18:20.304Z,52.50
2023-04-09T01:20:56.334Z,60.10
2023-04-09T01:23:35.372Z,66.70
2023-04-09T01:26:08.721Z,70.85
2023-04-09T01:28:52.495Z,57.90
2023-04-09T01:31:26.425Z,53.75
2023-04-09T01:33:55.099Z,45.17
2023-04-09T01:36:25.884Z,49.72
2023-04-09T01:38:57.289Z,46.30
2023-04-09T01:41:27.171Z,65.20
2023-04-09T01:43:57.449Z,47.75
2023-04-09T01:46:27.293Z,58.42
2023-04-09T01:48:56.936Z,55.45
2023-04-09T01:51:26.625Z,53.13
2023-04-09T01:53:54.902Z,48.63
2023-04-09T01:56:23.098Z,75.80
2023-04-09T01:58:52.750Z,50.45
2023-04-09T02:01:32.312Z,46.05
2023-04-09T02:04:04.387Z,43.70
2023-04-09T02:06:39.858Z,54.63
2023-04-09T02:09:10.619Z,45.75
2023-04-09T02:11:41.823Z,41.88
2023-04-09T02:14:12.699Z,39.40
2023-04-09T02:17:02.773Z,43.53
2023-04-09T02:19:40.368Z,37.50
2023-04-09T02:22:08.933Z,38.13
2023-04-09T02:24:37.536Z,37.47
2023-04-09T02:27:06.226Z,42.30
2023-04-09T02:29:34.467Z,36.80
2023-04-09T02:32:04.101Z,42.88
2023-04-09T02:34:32.302Z,43.63
2023-04-09T02:37:00.631Z,40.97
2023-04-09T02:39:28.874Z,57.83
2023-04-09T02:41:57.941Z,66.68
2023-04-09T02:44:28.571Z,64.18
2023-04-09T02:46:58.211Z,57.40
2023-04-09T02:49:27.917Z,69.78
2023-04-09T02:51:56.599Z,45.97
2023-04-09T02:54:24.794Z,42.83
2023-04-09T02:56:53.055Z,43.45
2023-04-09T02:59:21.332Z,50.38
2023-04-09T03:01:49.853Z,52.88
2023-04-09T03:04:18.239Z,45.90
2023-04-09T03:06:47.986Z,44.80
2023-04-09T03:09:16.214Z,42.85
2023-04-09T03:11:44.450Z,44.97
2023-04-09T03:14:12.647Z,44.72
2023-04-09T03:16:41.012Z,46.55
2023-04-09T03:19:09.376Z,42.97
2023-04-09T03:21:38.662Z,36.88
2023-04-09T03:24:08.888Z,36.13
2023-04-09T03:26:38.022Z,43.88
2023-04-09T03:29:08.514Z,37.70
2023-04-09T03:31:36.913Z,39.45
2023-04-09T03:34:05.149Z,54.40
2023-04-09T03:36:34.669Z,48.95
2023-04-09T03:39:13.106Z,47.03
2023-04-09T03:41:44.957Z,51.42
2023-04-09T03:44:16.720Z,50.88
2023-04-09T03:47:03.633Z,63.15
2023-04-09T03:49:32.012Z,48.70
2023-04-09T03:52:08.999Z,36.83
2023-04-09T03:54:43.576Z,36.70
2023-04-09T03:57:17.679Z,39.50
2023-04-09T03:59:48.522Z,37.67
2023-04-09T04:02:20.671Z,35.88
2023-04-09T04:04:58.354Z,32.92
2023-04-09T04:07:31.653Z,32.80
2023-04-09T04:10:08.911Z,38.00
2023-04-09T04:12:37.265Z,35.65
2023-04-09T04:15:10.655Z,32.33
2023-04-09T04:17:45.458Z,36.50
2023-04-09T04:20:23.050Z,31.90
2023-04-09T04:22:58.472Z,35.03
2023-04-09T04:25:29.462Z,35.33
2023-04-09T04:27:58.225Z,51.67
2023-04-09T04:33:08.139Z,35.58
2023-04-09T04:36:07.634Z,29.92
2023-04-09T04:38:42.939Z,28.55
2023-04-09T04:41:19.698Z,27.67
2023-04-09T04:43:55.071Z,30.40
2023-04-09T04:46:26.176Z,24.02
2023-04-09T04:48:54.683Z,23.60
2023-04-09T04:51:24.187Z,24.65
2023-04-09T04:54:03.098Z,31.85
2023-04-09T04:56:33.122Z,32.40
2023-04-09T04:59:11.626Z,25.70
2023-04-09T05:01:55.037Z,25.63
2023-04-09T05:04:23.561Z,27.20
2023-04-09T05:06:52.062Z,27.88
2023-04-09T05:09:23.621Z,21.88
2023-04-09T05:12:03.770Z,19.85
2023-04-09T05:14:32.988Z,22.77
2023-04-09T05:17:01.242Z,20.15
2023-04-09T05:19:40.289Z,25.17
2023-04-09T05:22:08.744Z,35.15
2023-04-09T05:24:36.893Z,33.28
2023-04-09T05:27:06.651Z,32.30
2023-04-09T05:29:34.935Z,30.13
2023-04-09T05:32:04.596Z,30.67
2023-04-09T05:34:37.109Z,27.75
2023-04-09T05:37:06.647Z,33.10
2023-04-09T05:39:35.813Z,28.88
2023-04-09T05:42:06.727Z,34.47
2023-04-09T05:44:51.972Z,26.30
2023-04-09T05:47:22.081Z,25.77
2023-04-09T05:50:02.123Z,22.60
2023-04-09T05:52:31.649Z,23.42
2023-04-09T05:54:59.869Z,21.17
2023-04-09T05:57:42.311Z,21.13
2023-04-09T06:00:11.754Z,20.13
2023-04-09T06:02:46.153Z,20.73
2023-04-09T06:05:14.992Z,17.95
2023-04-09T06:07:43.185Z,26.00
2023-04-09T06:10:11.429Z,23.75
2023-04-09T06:12:42.009Z,25.90
2023-04-09T06:15:11.632Z,21.10
2023-04-09T06:17:39.790Z,22.05
2023-04-09T06:20:09.025Z,18.17
2023-04-09T06:22:37.261Z,21.25
2023-04-09T06:25:06.251Z,19.98
2023-04-09T06:27:34.533Z,22.35
2023-04-09T06:30:04.229Z,18.08
2023-04-09T06:32:37.614Z,14.43
2023-04-09T06:35:11.794Z,21.73
2023-04-09T06:37:39.940Z,18.73
2023-04-09T06:40:09.555Z,24.70
2023-04-09T06:42:37.820Z,21.35
2023-04-09T06:45:15.073Z,23.27
2023-04-09T06:47:43.322Z,19.90
2023-04-09T06:50:11.783Z,20.05
2023-04-09T06:52:39.998Z,20.40
2023-04-09T06:55:08.717Z,20.75
2023-04-09T06:57:37.862Z,19.77
2023-04-09T07:00:07.240Z,18.15
2023-04-09T07:02:37.484Z,22.75
2023-04-09T07:05:06.494Z,18.33
2023-04-09T07:07:34.684Z,20.58
2023-04-09T07:10:03.452Z,19.60
2023-04-09T07:12:33.567Z,17.45
2023-04-09T07:15:02.956Z,20.83
2023-04-09T07:17:33.014Z,16.88
2023-04-09T07:20:03.386Z,20.75
2023-04-09T07:22:31.921Z,20.95
2023-04-09T07:25:00.722Z,14.38
2023-04-09T07:27:29.912Z,14.95
2023-04-09T07:29:59.123Z,16.58
2023-04-09T07:32:29.179Z,19.17
2023-04-09T07:34:59.424Z,22.70
2023-04-09T07:37:29.112Z,26.95
2023-04-09T07:39:57.265Z,25.40
2023-04-09T07:42:25.692Z,21.98
2023-04-09T07:44:53.872Z,22.23
2023-04-09T07:47:23.961Z,23.95
2023-04-09T07:49:52.172Z,18.77
2023-04-09T07:52:20.494Z,27.10
2023-04-09T07:54:50.137Z,22.63
2023-04-09T07:57:18.295Z,25.70
2023-04-09T07:59:46.814Z,20.10
2023-04-09T08:02:15.768Z,22.75
2023-04-09T08:04:44.363Z,25.98
2023-04-09T08:07:12.736Z,18.55
2023-04-09T08:09:41.110Z,24.30
2023-04-09T08:12:11.117Z,20.83
2023-04-09T08:14:39.346Z,22.65
2023-04-09T08:17:07.591Z,29.20
2023-04-09T08:19:35.950Z,24.75
2023-04-09T08:22:04.522Z,26.40
2023-04-09T08:24:32.731Z,23.80
2023-04-09T08:27:01.897Z,25.67
2023-04-09T08:29:32.126Z,25.77
2023-04-09T08:32:00.426Z,34.90
2023-04-09T08:34:28.696Z,25.95
2023-04-09T08:36:57.144Z,28.00
2023-04-09T08:39:25.490Z,26.90
2023-04-09T08:41:53.786Z,20.05
2023-04-09T08:44:22.205Z,27.50
2023-04-09T08:46:52.650Z,23.60
2023-04-09T08:49:21.048Z,26.83
2023-04-09T08:51:50.440Z,25.63
2023-04-09T08:54:20.274Z,22.80
2023-04-09T08:56:48.729Z,22.63
2023-04-09T08:59:19.244Z,27.92
2023-04-09T09:01:52.872Z,26.83
2023-04-09T09:04:22.632Z,20.02
2023-04-09T09:06:50.888Z,24.42
2023-04-09T09:09:19.935Z,21.20
2023-04-09T09:11:50.385Z,1462.47
2023-04-09T09:14:20.791Z,1999.90
2023-04-09T09:17:08.340Z,385.67
2023-04-09T09:19:38.222Z,307.20
2023-04-09T09:22:08.943Z,25.73
2023-04-09T09:24:48.450Z,48.22
2023-04-09T09:27:36.789Z,23.73
2023-04-09T09:30:06.532Z,24.48
2023-04-09T09:32:35.138Z,16.15
2023-04-09T09:35:06.859Z,28.25
2023-04-09T09:37:35.536Z,32.20
2023-04-09T09:40:04.430Z,21.67
2023-04-09T09:42:33.192Z,24.60
2023-04-09T09:45:02.703Z,23.00
2023-04-09T09:47:32.184Z,50.65
2023-04-09T09:50:00.392Z,34.03
2023-04-09T09:52:30.982Z,20.35
2023-04-09T09:55:04.322Z,30.27
2023-04-09T09:57:35.161Z,46.60
2023-04-09T10:00:04.910Z,21.48
2023-04-09T10:02:49.304Z,26.70
2023-04-09T10:05:17.798Z,22.20
2023-04-09T10:07:49.320Z,27.42
2023-04-09T10:10:17.933Z,20.55
2023-04-09T10:12:47.256Z,25.90
2023-04-09T10:15:15.904Z,26.52
2023-04-09T10:17:44.209Z,29.42
2023-04-09T10:20:16.823Z,17.92
2023-04-09T10:22:49.517Z,19.25
2023-04-09T10:25:18.360Z,21.42
2023-04-09T10:27:49.241Z,18.23
2023-04-09T10:30:33.612Z,15.75
2023-04-09T10:33:12.305Z,13.43
2023-04-09T10:35:40.786Z,17.58
2023-04-09T10:38:11.305Z,22.05
2023-04-09T10:40:43.604Z,15.68
2023-04-09T10:43:12.878Z,26.73
2023-04-09T10:45:42.682Z,16.92
2023-04-09T10:48:15.130Z,14.98
2023-04-09T10:50:46.391Z,13.07
2023-04-09T10:53:26.545Z,10.07
2023-04-09T10:55:56.301Z,10.85
2023-04-09T10:58:24.485Z,12.05
2023-04-09T11:00:52.998Z,11.60
2023-04-09T11:03:23.836Z,13.90
2023-04-09T11:05:55.466Z,11.77
2023-04-09T11:08:25.154Z,17.13
2023-04-09T11:10:56.857Z,11.32
2023-04-09T11:13:25.777Z,14.45
2023-04-09T11:15:57.479Z,12.27
2023-04-09T11:18:27.511Z,10.43
2023-04-09T11:20:56.782Z,10.07
2023-04-09T11:23:27.093Z,19.00
2023-04-09T11:25:56.463Z,10.77
2023-04-09T11:28:25.727Z,9.40
2023-04-09T11:30:54.374Z,7.30
2023-04-09T11:33:22.651Z,9.25
2023-04-09T11:35:52.200Z,8.57
2023-04-09T11:38:20.402Z,12.48
2023-04-09T11:40:51.330Z,13.90
2023-04-09T11:43:21.182Z,9.77
2023-04-09T11:45:50.385Z,14.50
2023-04-09T11:48:19.353Z,13.07
2023-04-09T11:50:48.199Z,9.98
2023-04-09T11:53:22.059Z,16.48
2023-04-09T11:55:53.404Z,11.43
2023-04-09T11:58:24.646Z,17.92
2023-04-09T12:00:55.106Z,15.80
2023-04-09T12:03:30.877Z,19.35
2023-04-09T12:06:02.688Z,16.40
2023-04-09T12:08:31.327Z,19.08
2023-04-09T12:11:09.761Z,28.75
2023-04-09T12:16:08.338Z,14.73
2023-04-09T12:18:38.505Z,16.27
2023-04-09T12:21:06.977Z,13.05
2023-04-09T12:23:35.308Z,10.45
2023-04-09T12:26:05.260Z,10.65
2023-04-09T12:28:33.532Z,14.63
2023-04-09T12:31:03.606Z,15.60
2023-04-09T12:33:32.336Z,18.67
2023-04-09T12:36:00.654Z,14.82
2023-04-09T12:38:28.897Z,15.65
2023-04-09T12:40:57.197Z,15.90
2023-04-09T12:43:26.766Z,12.07
2023-04-09T12:45:55.052Z,8.32
2023-04-09T12:48:23.749Z,20.35
2023-04-09T12:50:52.188Z,8.93
2023-04-09T12:53:20.536Z,9.40
2023-04-09T12:55:48.840Z,16.83
2023-04-09T12:58:17.045Z,15.00
2023-04-09T13:00:47.227Z,12.57
2023-04-09T13:03:16.931Z,13.57
2023-04-09T13:05:45.404Z,14.25
2023-04-09T13:08:13.564Z,12.15
2023-04-09T13:10:42.148Z,12.25
2023-04-09T13:13:12.709Z,11.55
2023-04-09T13:15:43.310Z,14.82
2023-04-09T13:18:13.800Z,32.88
2023-04-09T13:20:42.079Z,16.88
2023-04-09T13:23:10.231Z,9.05
2023-04-09T13:25:38.438Z,16.33
2023-04-09T13:28:06.672Z,13.80
2023-04-09T13:30:35.691Z,10.88
2023-04-09T13:33:04.015Z,10.00
2023-04-09T13:35:33.682Z,7.85
2023-04-09T13:38:02.067Z,11.32
2023-04-09T13:40:30.437Z,8.98
2023-04-09T13:42:58.654Z,10.93
2023-04-09T13:45:26.914Z,8.55
2023-04-09T13:47:55.290Z,9.55
2023-04-09T13:50:23.989Z,18.45
2023-04-09T13:52:53.834Z,13.20
2023-04-09T13:55:22.107Z,7.57
2023-04-09T13:57:50.334Z,11.15
2023-04-09T14:00:20.022Z,9.50
2023-04-09T14:02:48.430Z,8.55
2023-04-09T14:05:17.205Z,11.95
2023-04-09T14:07:45.954Z,9.15
2023-04-09T14:10:16.057Z,9.20
2023-04-09T14:12:44.276Z,6.53
2023-04-09T14:15:13.024Z,6.60
2023-04-09T14:17:42.021Z,16.33
2023-04-09T14:20:10.904Z,11.20
2023-04-09T14:22:39.576Z,8.27
2023-04-09T14:25:08.818Z,10.05
2023-04-09T14:27:39.132Z,6.35
2023-04-09T14:30:09.055Z,8.02
2023-04-09T14:32:37.626Z,19.60
2023-04-09T14:35:06.881Z,11.13
2023-04-09T14:37:35.684Z,7.30
2023-04-09T14:40:04.202Z,9.68
2023-04-09T14:42:32.861Z,9.90
2023-04-09T14:45:03.256Z,15.45
2023-04-09T14:47:31.969Z,7.45
2023-04-09T14:50:00.494Z,6.18
2023-04-09T14:52:30.581Z,4.65
2023-04-09T14:54:59.079Z,5.65
2023-04-09T14:57:27.584Z,5.78
2023-04-09T14:59:55.947Z,6.72
2023-04-09T15:02:26.291Z,6.25
2023-04-09T15:04:55.029Z,11.38
2023-04-09T15:07:25.143Z,7.90
2023-04-09T15:09:53.719Z,7.28
2023-04-09T15:12:22.349Z,7.70
2023-04-09T15:14:51.045Z,15.32
2023-04-09T15:17:19.512Z,5.47
2023-04-09T15:19:49.682Z,9.73
2023-04-09T15:22:18.370Z,8.20
2023-04-09T15:24:46.907Z,12.52
2023-04-09T15:27:16.286Z,9.00
2023-04-09T15:29:44.935Z,12.98
2023-04-09T15:32:13.762Z,10.57
2023-04-09T15:34:42.221Z,11.48
2023-04-09T15:37:12.243Z,15.05
2023-04-09T15:39:40.714Z,17.88
2023-04-09T15:42:10.722Z,13.55
2023-04-09T15:44:40.307Z,11.45
2023-04-09T15:47:09.149Z,9.15
2023-04-09T15:49:37.952Z,8.45
2023-04-09T15:52:06.641Z,12.93
2023-04-09T15:54:36.414Z,9.18
2023-04-09T15:57:05.190Z,10.93
2023-04-09T15:59:33.749Z,13.75
2023-04-09T16:02:02.202Z,13.20
2023-04-09T16:04:30.705Z,9.70
2023-04-09T16:06:59.240Z,11.93
2023-04-09T16:09:27.814Z,6.65
2023-04-09T16:11:57.533Z,11.35
2023-04-09T16:14:26.101Z,14.35
2023-04-09T16:16:54.639Z,14.05
2023-04-09T16:19:24.690Z,13.05
2023-04-09T16:21:53.365Z,22.30
2023-04-09T16:24:21.538Z,28.98
2023-04-09T16:26:49.929Z,23.02
2023-04-09T16:29:19.566Z,16.92
2023-04-09T16:31:47.759Z,16.05
2023-04-09T16:34:15.980Z,28.55
2023-04-09T16:36:44.741Z,23.92
2023-04-09T16:39:13.019Z,12.02
2023-04-09T16:41:41.345Z,32.33
2023-04-09T16:44:09.601Z,22.58
2023-04-09T16:46:39.238Z,62.08
2023-04-09T16:49:07.449Z,95.38
2023-04-09T16:51:35.849Z,80.22
2023-04-09T16:54:04.044Z,51.33
2023-04-09T16:56:32.280Z,37.05
2023-04-09T16:59:00.498Z,34.72
2023-04-09T17:01:29.074Z,22.52
2023-04-09T17:04:00.762Z,32.75
2023-04-09T17:06:29.460Z,38.42
2023-04-09T17:08:58.030Z,58.67
2023-04-09T17:11:26.591Z,55.55
2023-04-09T17:13:55.045Z,50.67
2023-04-09T17:16:23.325Z,37.03
2023-04-09T17:18:51.854Z,28.05
2023-04-09T17:21:21.670Z,28.65
2023-04-09T17:23:49.879Z,22.20
2023-04-09T17:26:18.134Z,15.18
2023-04-09T17:28:46.978Z,23.02
2023-04-09T17:31:16.289Z,23.45
2023-04-09T17:33:47.099Z,19.38
2023-04-09T17:36:15.466Z,23.80
2023-04-09T17:38:45.049Z,29.83
2023-04-09T17:41:13.347Z,34.90
2023-04-09T17:43:41.533Z,27.50
2023-04-09T17:46:09.867Z,39.45
2023-04-09T17:48:38.223Z,40.20
2023-04-09T17:51:07.402Z,37.42
2023-04-09T17:53:35.660Z,32.67
2023-04-09T17:56:05.686Z,46.22
2023-04-09T17:58:34.270Z,45.15
2023-04-09T18:01:02.560Z,49.22
2023-04-09T18:03:31.055Z,54.63
2023-04-09T18:06:00.712Z,56.08
2023-04-09T18:08:28.892Z,52.80
2023-04-09T18:11:11.433Z,43.50
2023-04-09T18:13:43.929Z,66.95
2023-04-09T18:16:13.221Z,43.85
2023-04-09T18:18:41.473Z,58.83
2023-04-09T18:21:09.685Z,46.17
2023-04-09T18:23:39.584Z,49.20
2023-04-09T18:26:07.900Z,47.60
2023-04-09T18:28:37.698Z,48.50
2023-04-09T18:31:07.453Z,61.92
2023-04-09T18:33:36.529Z,112.65
2023-04-09T18:36:05.245Z,80.10
2023-04-09T18:38:33.665Z,82.93
2023-04-09T18:41:02.840Z,58.70
2023-04-09T18:43:31.208Z,66.40
2023-04-09T18:45:59.970Z,104.25
2023-04-09T18:48:29.562Z,123.55
2023-04-09T18:50:57.773Z,132.32
2023-04-09T18:53:26.744Z,218.45
2023-04-09T18:55:54.890Z,228.27
2023-04-09T18:58:24.059Z,232.65
2023-04-09T19:00:52.226Z,119.70
2023-04-09T19:03:21.267Z,97.75
2023-04-09T19:05:52.654Z,100.00
2023-04-09T19:08:20.921Z,129.80
2023-04-09T19:10:49.171Z,161.98
2023-04-09T19:13:18.301Z,98.28
2023-04-09T19:15:46.625Z,92.07
2023-04-09T19:18:14.948Z,92.85
2023-04-09T19:20:43.220Z,131.18
2023-04-09T19:23:12.843Z,88.93
2023-04-09T19:25:41.114Z,107.05
2023-04-09T19:28:09.388Z,112.47
2023-04-09T19:30:37.555Z,109.25
2023-04-09T19:33:05.939Z,121.68
2023-04-09T19:35:35.885Z,99.85
2023-04-09T19:38:05.090Z,162.52
2023-04-09T19:40:34.889Z,102.03
2023-04-09T19:43:03.164Z,95.28
2023-04-09T19:45:31.421Z,99.65
2023-04-09T19:47:59.656Z,92.30
2023-04-09T19:50:27.949Z,88.75
2023-04-09T19:52:56.521Z,107.65
2023-04-09T19:55:25.054Z,114.53
2023-04-09T19:57:54.735Z,111.95
2023-04-09T20:00:22.952Z,101.88
2023-04-09T20:02:51.687Z,110.07
2023-04-09T20:05:21.059Z,111.68
2023-04-09T20:07:49.597Z,113.53
2023-04-09T20:10:18.443Z,116.32
2023-04-09T20:12:48.568Z,97.78
2023-04-09T20:15:20.073Z,85.63
2023-04-09T20:17:49.300Z,84.22
2023-04-09T20:20:20.022Z,81.93
2023-04-09T20:22:56.292Z,70.88
2023-04-09T20:25:25.761Z,83.75
2023-04-09T20:27:55.061Z,85.50
2023-04-09T20:30:24.688Z,83.05
2023-04-09T20:32:52.998Z,70.38
2023-04-09T20:35:21.738Z,83.10
2023-04-09T20:37:50.059Z,90.05
2023-04-09T20:40:18.249Z,92.00
2023-04-09T20:42:46.380Z,111.05
2023-04-09T20:45:14.648Z,98.47
2023-04-09T20:47:44.381Z,94.85
2023-04-09T20:50:13.043Z,95.68
2023-04-09T20:52:41.292Z,106.68
2023-04-09T20:55:10.082Z,84.85
2023-04-09T20:57:38.226Z,73.80
2023-04-09T21:00:07.998Z,76.43
2023-04-09T21:02:36.418Z,72.60
2023-04-09T21:05:19.587Z,60.35
2023-04-09T21:07:50.885Z,60.40
2023-04-09T21:10:19.306Z,63.17
2023-04-09T21:12:47.622Z,74.28
2023-04-09T21:15:16.011Z,73.40
2023-04-09T21:17:44.463Z,69.80
2023-04-09T21:20:15.164Z,73.63
2023-04-09T21:22:43.482Z,82.55
2023-04-09T21:25:13.793Z,81.65
2023-04-09T21:27:43.364Z,91.78
2023-04-09T21:30:12.107Z,90.88
2023-04-09T21:32:40.417Z,99.45
2023-04-09T21:35:09.159Z,80.43
2023-04-09T21:37:39.312Z,82.60
2023-04-09T21:40:08.884Z,79.45
2023-04-09T21:42:37.401Z,69.57
2023-04-09T21:45:06.626Z,76.93
2023-04-09T21:47:34.926Z,77.80
2023-04-09T21:50:04.085Z,76.18
2023-04-09T21:52:32.611Z,73.75
2023-04-09T21:55:02.346Z,72.05
2023-04-09T21:57:30.946Z,82.00
2023-04-09T21:59:59.889Z,69.70
2023-04-09T22:02:28.683Z,78.13
2023-04-09T22:04:57.088Z,91.72
2023-04-09T22:07:25.860Z,65.13
2023-04-09T22:09:55.425Z,65.50
2023-04-09T22:12:25.364Z,68.43
2023-04-09T22:14:53.464Z,73.25
2023-04-09T22:17:21.625Z,64.20
2023-04-09T22:19:51.121Z,70.45
2023-04-09T22:22:19.251Z,62.10
2023-04-09T22:24:47.414Z,50.15
2023-04-09T22:27:15.587Z,60.17
2023-04-09T22:29:45.084Z,52.45
2023-04-09T22:32:13.554Z,55.13
2023-04-09T22:34:41.847Z,60.63
2023-04-09T22:37:10.073Z,58.13
2023-04-09T22:39:38.220Z,57.72
2023-04-09T22:42:06.433Z,62.92
2023-04-09T22:44:34.566Z,64.30
2023-04-09T22:47:04.160Z,54.78
2023-04-09T22:49:32.340Z,62.03
2023-04-09T22:52:00.486Z,56.58
2023-04-09T22:54:30.134Z,62.55
2023-04-09T22:56:58.416Z,85.80
2023-04-09T22:59:37.191Z,150.60
2023-04-09T23:02:09.438Z,121.53
2023-04-09T23:04:37.817Z,90.60
2023-04-09T23:07:06.129Z,154.60
2023-04-09T23:09:34.442Z,89.32
2023-04-09T23:12:03.443Z,55.40
2023-04-09T23:14:31.603Z,45.78
2023-04-09T23:16:59.773Z,45.97
2023-04-09T23:19:29.334Z,43.58
2023-04-09T23:21:57.481Z,49.40
2023-04-09T23:24:25.751Z,48.95
2023-04-09T23:26:53.900Z,45.25
2023-04-09T23:29:22.060Z,53.63
2023-04-09T23:31:50.346Z,58.70
2023-04-09T23:34:18.575Z,61.75
2023-04-09T23:36:48.147Z,52.38
2023-04-09T23:39:16.259Z,56.13
2023-04-09T23:41:44.482Z,52.17
2023-04-09T23:44:12.651Z,42.42
2023-04-09T23:46:41.826Z,43.40
2023-04-09T23:49:10.025Z,47.90
2023-04-09T23:51:38.266Z,48.35
2023-04-09T23:54:07.841Z,54.60
2023-04-09T23:56:36.378Z,80.82
2023-04-09T23:59:04.534Z,88.95
